createdAt,value
2023-02-16T00:01:54.760Z,40.38
2023-02-16T00:04:24.680Z,38.35
2023-02-16T00:06:51.888Z,38.80
2023-02-16T00:09:19.719Z,39.70
2023-02-16T00:12:06.133Z,38.33
2023-02-16T00:14:35.318Z,40.88
2023-02-16T00:17:02.930Z,39.58
2023-02-16T00:19:37.130Z,43.72
2023-02-16T00:22:05.368Z,40.72
2023-02-16T00:24:32.610Z,42.75
2023-02-16T00:27:01.071Z,42.88
2023-02-16T00:29:37.749Z,40.38
2023-02-16T00:32:06.287Z,39.70
2023-02-16T00:34:41.423Z,38.13
2023-02-16T00:37:13.218Z,43.47
2023-02-16T00:39:41.390Z,43.97
2023-02-16T00:42:18.579Z,45.38
2023-02-16T00:44:48.269Z,49.00
2023-02-16T00:47:37.310Z,44.92
2023-02-16T00:50:14.182Z,49.28
2023-02-16T00:52:44.111Z,47.50
2023-02-16T00:55:16.952Z,50.70
2023-02-16T00:57:51.852Z,50.20
2023-02-16T01:00:25.631Z,50.63
2023-02-16T01:02:55.448Z,51.58
2023-02-16T01:05:22.761Z,49.42
2023-02-16T01:08:08.052Z,49.17
2023-02-16T01:10:54.680Z,53.45
2023-02-16T01:13:22.640Z,48.10
2023-02-16T01:15:49.365Z,47.83
2023-02-16T01:18:18.300Z,49.05
2023-02-16T01:20:45.638Z,47.67
2023-02-16T01:23:14.328Z,44.95
2023-02-16T01:25:41.643Z,48.20
2023-02-16T01:28:23.611Z,44.00
2023-02-16T01:30:51.868Z,44.33
2023-02-16T01:33:19.830Z,42.92
2023-02-16T01:35:46.904Z,42.88
2023-02-16T01:38:18.915Z,47.17
2023-02-16T01:40:53.528Z,47.00
2023-02-16T01:46:02.030Z,45.50
2023-02-16T01:48:30.483Z,45.88
2023-02-16T01:51:12.086Z,51.78
2023-02-16T01:53:47.509Z,50.97
2023-02-16T01:56:32.696Z,49.38
2023-02-16T01:59:08.960Z,48.72
2023-02-16T02:01:41.242Z,51.55
2023-02-16T02:07:15.603Z,47.42
2023-02-16T02:09:50.142Z,48.88
2023-02-16T02:12:44.832Z,49.80
2023-02-16T02:15:14.203Z,51.90
2023-02-16T02:17:42.069Z,51.58
2023-02-16T02:20:11.519Z,50.67
2023-02-16T02:23:18.719Z,51.60
2023-02-16T02:26:22.949Z,48.47
2023-02-16T02:29:07.912Z,52.13
2023-02-16T02:31:52.750Z,75.20
2023-02-16T02:34:55.015Z,58.65
2023-02-16T02:37:32.113Z,52.85
2023-02-16T02:40:34.993Z,50.13
2023-02-16T02:43:16.615Z,51.85
2023-02-16T02:45:59.663Z,49.47
2023-02-16T02:48:33.024Z,50.78
2023-02-16T02:51:21.808Z,48.42
2023-02-16T02:54:14.104Z,48.20
2023-02-16T02:57:06.096Z,49.13
2023-02-16T02:59:53.461Z,51.22
2023-02-16T03:02:24.288Z,49.40
2023-02-16T03:04:53.751Z,48.60
2023-02-16T03:07:43.745Z,47.40
2023-02-16T03:10:29.320Z,50.75
2023-02-16T03:12:58.518Z,51.17
2023-02-16T03:15:26.528Z,51.65
2023-02-16T03:18:14.853Z,50.75
2023-02-16T03:21:02.565Z,49.08
2023-02-16T03:23:48.041Z,51.67
2023-02-16T03:26:33.924Z,49.03
2023-02-16T03:29:21.446Z,50.55
2023-02-16T03:31:49.436Z,50.35
2023-02-16T03:34:17.824Z,45.60
2023-02-16T03:36:48.631Z,48.47
2023-02-16T03:39:15.889Z,47.50
2023-02-16T03:41:47.794Z,46.47
2023-02-16T03:44:14.754Z,49.72
2023-02-16T03:46:41.639Z,49.05
2023-02-16T03:49:08.524Z,49.67
2023-02-16T03:51:35.236Z,43.92
2023-02-16T03:54:01.820Z,41.70
2023-02-16T03:56:28.447Z,42.20
2023-02-16T03:58:55.001Z,41.17
2023-02-16T04:01:21.621Z,43.55
2023-02-16T04:03:48.709Z,45.60
2023-02-16T04:06:15.437Z,39.58
2023-02-16T04:08:42.067Z,41.38
2023-02-16T04:11:27.133Z,44.15
2023-02-16T04:13:53.894Z,42.80
2023-02-16T04:16:20.534Z,41.00
2023-02-16T04:18:47.195Z,40.85
2023-02-16T04:21:14.384Z,41.80
2023-02-16T04:23:41.172Z,44.50
2023-02-16T04:26:07.829Z,46.85
2023-02-16T04:28:34.436Z,47.88
2023-02-16T04:31:01.237Z,62.88
2023-02-16T04:33:28.045Z,84.47
2023-02-16T04:35:54.703Z,65.28
2023-02-16T04:38:21.261Z,71.00
2023-02-16T04:40:47.864Z,104.53
2023-02-16T04:43:14.487Z,116.50
2023-02-16T04:45:41.370Z,107.03
2023-02-16T04:48:08.040Z,88.53
2023-02-16T04:50:34.744Z,91.65
2023-02-16T04:53:01.505Z,84.47
2023-02-16T04:55:28.246Z,68.43
2023-02-16T04:57:54.818Z,59.60
2023-02-16T05:00:21.876Z,55.15
2023-02-16T05:02:48.572Z,53.45
2023-02-16T05:05:15.236Z,47.58
2023-02-16T05:07:41.825Z,47.88
2023-02-16T05:10:09.204Z,47.70
2023-02-16T05:12:54.510Z,47.78
2023-02-16T05:15:21.198Z,47.63
2023-02-16T05:17:47.940Z,57.75
2023-02-16T05:20:14.756Z,56.13
2023-02-16T05:22:41.501Z,57.88
2023-02-16T05:25:08.159Z,57.00
2023-02-16T05:27:35.516Z,57.65
2023-02-16T05:30:02.255Z,55.92
2023-02-16T05:32:28.989Z,59.30
2023-02-16T05:34:55.647Z,56.90
2023-02-16T05:37:22.364Z,57.65
2023-02-16T05:39:49.075Z,54.25
2023-02-16T05:42:15.842Z,53.30
2023-02-16T05:44:42.475Z,51.97
2023-02-16T05:47:09.271Z,47.67
2023-02-16T05:49:36.180Z,46.00
2023-02-16T05:52:03.092Z,46.03
2023-02-16T05:54:29.927Z,46.45
2023-02-16T05:56:56.564Z,51.17
2023-02-16T05:59:23.477Z,48.60
2023-02-16T06:01:52.219Z,45.00
2023-02-16T06:04:20.394Z,43.28
2023-02-16T06:06:47.266Z,38.88
2023-02-16T06:09:13.866Z,36.22
2023-02-16T06:11:40.771Z,32.63
2023-02-16T06:14:14.303Z,30.70
2023-02-16T06:16:43.341Z,29.67
2023-02-16T06:19:10.560Z,28.20
2023-02-16T06:21:38.566Z,30.30
2023-02-16T06:24:07.112Z,32.58
2023-02-16T06:26:34.102Z,32.30
2023-02-16T06:29:01.082Z,30.95
2023-02-16T06:31:28.213Z,32.38
2023-02-16T06:33:56.838Z,32.50
2023-02-16T06:36:24.502Z,33.08
2023-02-16T06:38:51.140Z,28.08
2023-02-16T06:41:31.485Z,31.35
2023-02-16T06:43:59.825Z,27.85
2023-02-16T06:46:26.951Z,26.83
2023-02-16T06:48:54.228Z,28.73
2023-02-16T06:51:21.369Z,26.77
2023-02-16T06:53:48.068Z,33.95
2023-02-16T06:56:14.762Z,30.95
2023-02-16T06:58:41.722Z,31.27
2023-02-16T07:01:08.506Z,29.38
2023-02-16T07:03:35.401Z,33.15
2023-02-16T07:06:02.391Z,35.85
2023-02-16T07:08:29.282Z,35.83
2023-02-16T07:10:56.017Z,36.65
2023-02-16T07:13:22.700Z,33.10
2023-02-16T07:15:49.455Z,34.28
2023-02-16T07:18:16.095Z,33.90
2023-02-16T07:20:42.746Z,38.75
2023-02-16T07:23:09.336Z,37.03
2023-02-16T07:25:37.070Z,34.08
2023-02-16T07:28:04.527Z,37.03
2023-02-16T07:30:31.305Z,40.78
2023-02-16T07:32:58.042Z,36.03
2023-02-16T07:35:25.776Z,36.78
2023-02-16T07:37:53.054Z,38.03
2023-02-16T07:40:19.817Z,36.67
2023-02-16T07:42:46.396Z,37.00
2023-02-16T07:45:13.030Z,38.13
2023-02-16T07:47:39.786Z,44.28
2023-02-16T07:50:07.031Z,38.50
2023-02-16T07:52:34.556Z,43.15
2023-02-16T07:55:01.290Z,39.45
2023-02-16T07:57:29.243Z,35.00
2023-02-16T07:59:56.581Z,37.58
2023-02-16T08:02:24.437Z,36.22
2023-02-16T08:04:53.961Z,34.22
2023-02-16T08:07:21.004Z,33.65
2023-02-16T08:09:47.652Z,34.55
2023-02-16T08:12:15.663Z,35.17
2023-02-16T08:14:42.783Z,37.30
2023-02-16T08:17:09.603Z,36.40
2023-02-16T08:19:39.529Z,37.13
2023-02-16T08:22:07.641Z,39.45
2023-02-16T08:24:34.987Z,41.70
2023-02-16T08:27:04.364Z,39.70
2023-02-16T08:29:32.215Z,38.35
2023-02-16T08:31:58.990Z,37.22
2023-02-16T08:34:26.433Z,38.95
2023-02-16T08:36:56.614Z,38.85
2023-02-16T08:39:30.017Z,37.78
2023-02-16T08:41:57.082Z,37.90
2023-02-16T08:44:25.403Z,37.97
2023-02-16T08:46:55.137Z,35.63
2023-02-16T08:49:23.785Z,39.30
2023-02-16T08:51:54.818Z,37.13
2023-02-16T08:54:26.588Z,40.53
2023-02-16T08:56:54.310Z,39.13
2023-02-16T08:59:22.358Z,38.33
2023-02-16T09:01:49.469Z,37.78
2023-02-16T09:04:19.156Z,41.88
2023-02-16T09:06:48.424Z,38.80
2023-02-16T09:09:16.081Z,39.08
2023-02-16T09:11:42.854Z,44.33
2023-02-16T09:14:10.514Z,41.38
2023-02-16T09:16:39.746Z,41.80
2023-02-16T09:19:07.134Z,38.85
2023-02-16T09:21:33.873Z,41.88
2023-02-16T09:24:03.611Z,40.65
2023-02-16T09:26:38.496Z,40.50
2023-02-16T09:29:07.126Z,37.67
2023-02-16T09:31:37.259Z,41.67
2023-02-16T09:34:14.359Z,41.88
2023-02-16T09:36:41.568Z,43.22
2023-02-16T09:39:08.290Z,40.80
2023-02-16T09:41:41.093Z,43.00
2023-02-16T09:44:46.746Z,40.22
2023-02-16T09:47:34.930Z,40.97
2023-02-16T09:50:13.171Z,36.40
2023-02-16T09:53:00.922Z,35.22
2023-02-16T09:55:46.501Z,36.92
2023-02-16T09:58:19.415Z,33.70
2023-02-16T10:01:03.017Z,33.85
2023-02-16T10:04:01.001Z,33.70
2023-02-16T10:06:50.517Z,32.95
2023-02-16T10:09:19.691Z,34.55
2023-02-16T10:12:22.336Z,36.47
2023-02-16T10:14:50.399Z,35.30
2023-02-16T10:17:24.020Z,35.00
2023-02-16T10:20:12.002Z,38.20
2023-02-16T10:23:09.455Z,38.22
2023-02-16T10:25:54.768Z,39.80
2023-02-16T10:28:46.408Z,40.30
2023-02-16T10:31:20.992Z,38.95
2023-02-16T10:34:15.258Z,40.40
2023-02-16T10:37:16.561Z,38.15
2023-02-16T10:39:46.885Z,39.40
2023-02-16T10:42:46.832Z,39.13
2023-02-16T10:45:27.286Z,38.97
2023-02-16T10:47:54.588Z,39.97
2023-02-16T10:50:33.351Z,40.92
2023-02-16T10:53:06.712Z,40.85
2023-02-16T10:55:33.334Z,38.92
2023-02-16T10:58:02.055Z,39.42
2023-02-16T11:00:51.895Z,38.85
2023-02-16T11:03:23.052Z,41.55
2023-02-16T11:05:49.648Z,42.03
2023-02-16T11:08:17.873Z,43.35
2023-02-16T11:10:49.065Z,41.05
2023-02-16T11:13:25.088Z,43.08
2023-02-16T11:15:58.324Z,43.95
2023-02-16T11:18:27.861Z,41.15
2023-02-16T11:20:55.338Z,43.03
2023-02-16T11:23:26.845Z,42.03
2023-02-16T11:26:00.584Z,45.00
2023-02-16T11:28:32.792Z,42.53
2023-02-16T11:33:28.873Z,41.22
2023-02-16T11:35:56.449Z,42.97
2023-02-16T11:38:35.586Z,42.67
2023-02-16T11:41:05.682Z,39.67
2023-02-16T11:43:36.465Z,39.03
2023-02-16T11:46:07.886Z,40.20
2023-02-16T11:48:34.715Z,38.10
2023-02-16T11:51:07.638Z,42.88
2023-02-16T11:53:37.398Z,39.83
2023-02-16T11:56:19.119Z,38.00
2023-02-16T11:58:45.886Z,37.35
2023-02-16T12:01:30.202Z,35.90
2023-02-16T12:04:23.066Z,35.28
2023-02-16T12:06:49.811Z,37.22
2023-02-16T12:09:23.628Z,35.30
2023-02-16T12:12:17.902Z,34.88
2023-02-16T12:15:03.530Z,33.97
2023-02-16T12:18:18.862Z,34.08
2023-02-16T12:20:54.863Z,33.20
2023-02-16T12:23:48.188Z,33.80
2023-02-16T12:26:48.929Z,34.60
2023-02-16T12:29:38.224Z,32.88
2023-02-16T12:32:32.770Z,35.15
2023-02-16T12:35:31.654Z,32.75
2023-02-16T12:38:19.809Z,33.67
2023-02-16T12:41:13.588Z,33.42
2023-02-16T12:43:48.741Z,33.78
2023-02-16T12:46:27.215Z,33.38
2023-02-16T12:49:01.210Z,33.20
2023-02-16T12:51:35.701Z,32.60
2023-02-16T12:54:16.421Z,33.30
2023-02-16T12:56:48.082Z,31.50
2023-02-16T12:59:26.358Z,34.00
2023-02-16T13:01:56.273Z,31.15
2023-02-16T13:04:50.737Z,30.70
2023-02-16T13:07:28.756Z,31.17
2023-02-16T13:10:02.074Z,30.08
2023-02-16T13:12:37.657Z,30.33
2023-02-16T13:15:21.391Z,29.92
2023-02-16T13:17:57.162Z,29.15
2023-02-16T13:20:25.250Z,25.95
2023-02-16T13:23:12.571Z,27.40
2023-02-16T13:25:54.576Z,26.45
2023-02-16T13:28:27.644Z,27.67
2023-02-16T13:31:15.429Z,27.10
2023-02-16T13:34:04.447Z,25.98
2023-02-16T13:36:59.338Z,26.90
2023-02-16T13:39:25.922Z,26.52
2023-02-16T13:42:13.165Z,24.60
2023-02-16T13:45:01.930Z,26.58
2023-02-16T13:47:37.647Z,23.55
2023-02-16T13:50:24.897Z,23.83
2023-02-16T13:52:53.257Z,23.40
2023-02-16T13:55:28.983Z,22.40
2023-02-16T13:58:21.819Z,19.75
2023-02-16T14:00:50.039Z,18.75
2023-02-16T14:03:16.715Z,17.73
2023-02-16T14:05:49.638Z,18.02
2023-02-16T14:08:19.488Z,17.35
2023-02-16T14:10:55.261Z,17.70
2023-02-16T14:13:52.974Z,16.50
2023-02-16T14:16:22.516Z,17.83
2023-02-16T14:19:23.707Z,17.25
2023-02-16T14:21:51.648Z,16.23
2023-02-16T14:24:33.382Z,16.55
2023-02-16T14:27:05.081Z,13.82
2023-02-16T14:29:34.890Z,13.95
2023-02-16T14:32:20.944Z,14.25
2023-02-16T14:35:22.035Z,14.00
2023-02-16T14:37:57.419Z,13.93
2023-02-16T14:40:51.984Z,12.52
2023-02-16T14:43:31.671Z,12.30
2023-02-16T14:46:14.009Z,12.25
2023-02-16T14:51:57.582Z,12.23
2023-02-16T14:54:37.624Z,13.27
2023-02-16T14:57:21.676Z,11.88
2023-02-16T14:59:51.078Z,14.13
2023-02-16T15:02:34.617Z,11.40
2023-02-16T15:05:19.453Z,13.00
2023-02-16T15:07:52.552Z,11.93
2023-02-16T15:10:27.057Z,12.30
2023-02-16T15:12:55.814Z,13.30
2023-02-16T15:15:31.523Z,14.80
2023-02-16T15:17:58.210Z,13.23
2023-02-16T15:20:35.444Z,14.98
2023-02-16T15:23:06.234Z,13.75
2023-02-16T15:25:40.787Z,12.32
2023-02-16T15:28:10.267Z,12.02
2023-02-16T15:30:41.369Z,11.70
2023-02-16T15:33:14.328Z,11.32
2023-02-16T15:35:43.773Z,12.85
2023-02-16T15:38:13.207Z,12.00
2023-02-16T15:40:40.407Z,11.18
2023-02-16T15:43:49.344Z,11.57
2023-02-16T15:46:16.987Z,10.90
2023-02-16T15:48:43.674Z,11.10
2023-02-16T15:51:13.732Z,12.18
2023-02-16T15:53:56.327Z,11.98
2023-02-16T15:56:46.216Z,12.60
2023-02-16T15:59:39.341Z,12.93
2023-02-16T16:02:20.787Z,17.27
2023-02-16T16:04:54.928Z,16.40
2023-02-16T16:07:32.104Z,18.58
2023-02-16T16:10:00.437Z,17.52
2023-02-16T16:12:28.734Z,17.80
2023-02-16T16:14:58.050Z,14.98
2023-02-16T16:17:34.345Z,15.20
2023-02-16T16:20:40.196Z,15.45
2023-02-16T16:23:26.042Z,15.93
2023-02-16T16:25:53.585Z,15.38
2023-02-16T16:28:27.136Z,16.15
2023-02-16T16:31:23.627Z,18.77
2023-02-16T16:33:59.421Z,18.85
2023-02-16T16:36:44.680Z,18.60
2023-02-16T16:39:17.334Z,18.23
2023-02-16T16:42:09.916Z,19.63
2023-02-16T16:44:40.394Z,19.27
2023-02-16T16:47:24.556Z,20.45
2023-02-16T16:50:10.172Z,20.15
2023-02-16T16:53:43.478Z,19.33
2023-02-16T16:58:42.202Z,20.92
2023-02-16T17:01:12.468Z,20.30
2023-02-16T17:03:39.135Z,20.05
2023-02-16T17:06:06.897Z,19.25
2023-02-16T17:08:33.819Z,18.17
2023-02-16T17:11:10.584Z,17.77
2023-02-16T17:13:37.204Z,19.70
2023-02-16T17:16:14.362Z,17.67
2023-02-16T17:18:41.230Z,17.58
2023-02-16T17:21:10.605Z,16.77
2023-02-16T17:23:45.187Z,14.93
2023-02-16T17:26:17.150Z,14.82
2023-02-16T17:28:43.931Z,22.30
2023-02-16T17:31:11.238Z,19.13
2023-02-16T17:33:38.057Z,18.50
2023-02-16T17:36:06.855Z,19.48
2023-02-16T17:38:34.589Z,24.40
2023-02-16T17:41:01.225Z,23.40
2023-02-16T17:43:31.413Z,24.77
2023-02-16T17:46:01.253Z,28.58
2023-02-16T17:48:30.476Z,26.38
2023-02-16T17:50:58.059Z,22.02
2023-02-16T17:53:26.180Z,23.88
2023-02-16T17:55:56.210Z,22.45
2023-02-16T17:58:24.338Z,25.45
2023-02-16T18:00:53.911Z,24.55
2023-02-16T18:03:22.922Z,29.48
2023-02-16T18:05:50.367Z,28.65
2023-02-16T18:08:18.660Z,23.20
2023-02-16T18:10:51.687Z,22.15
2023-02-16T18:13:19.268Z,19.08
2023-02-16T18:15:49.007Z,17.02
2023-02-16T18:18:17.814Z,16.52
2023-02-16T18:20:53.501Z,14.60
2023-02-16T18:26:14.682Z,18.50
2023-02-16T18:28:42.061Z,16.92
2023-02-16T18:31:09.860Z,17.45
2023-02-16T18:33:36.570Z,15.80
2023-02-16T18:36:05.249Z,17.50
2023-02-16T18:38:32.807Z,17.02
2023-02-16T18:43:49.487Z,16.15
2023-02-16T18:46:16.525Z,16.55
2023-02-16T18:48:59.756Z,16.58
2023-02-16T18:51:29.480Z,18.30
2023-02-16T18:53:57.711Z,18.88
2023-02-16T18:56:24.402Z,26.95
2023-02-16T18:58:53.891Z,27.08
2023-02-16T19:01:35.185Z,19.25
2023-02-16T19:04:03.224Z,20.42
2023-02-16T19:06:29.962Z,22.42
2023-02-16T19:08:58.500Z,31.55
2023-02-16T19:11:25.633Z,41.22
2023-02-16T19:13:52.287Z,30.42
2023-02-16T19:16:22.723Z,26.52
2023-02-16T19:18:49.376Z,29.15
2023-02-16T19:21:16.068Z,29.45
2023-02-16T19:23:43.431Z,26.10
2023-02-16T19:26:12.532Z,27.27
2023-02-16T19:28:54.530Z,28.63
2023-02-16T19:31:25.116Z,27.42
2023-02-16T19:33:52.572Z,31.10
2023-02-16T19:36:20.582Z,30.05
2023-02-16T19:38:47.941Z,30.42
2023-02-16T19:41:22.625Z,29.90
2023-02-16T19:43:49.647Z,30.20
2023-02-16T19:46:16.482Z,30.73
2023-02-16T19:48:43.704Z,39.58
2023-02-16T19:51:13.641Z,37.70
2023-02-16T19:53:42.435Z,25.15
2023-02-16T19:56:13.121Z,24.75
2023-02-16T19:58:39.768Z,27.15
2023-02-16T20:01:23.392Z,28.13
2023-02-16T20:03:51.715Z,21.85
2023-02-16T20:06:28.189Z,20.60
2023-02-16T20:08:56.114Z,19.67
2023-02-16T20:11:25.810Z,18.15
2023-02-16T20:13:55.972Z,22.73
2023-02-16T20:16:22.970Z,20.90
2023-02-16T20:18:51.932Z,31.58
2023-02-16T20:21:26.681Z,24.15
2023-02-16T20:23:56.609Z,21.90
2023-02-16T20:26:31.399Z,23.17
2023-02-16T20:28:59.861Z,24.63
2023-02-16T20:31:30.924Z,24.20
2023-02-16T20:33:59.273Z,18.40
2023-02-16T20:36:26.444Z,19.85
2023-02-16T20:38:53.419Z,21.52
2023-02-16T20:41:20.828Z,21.10
2023-02-16T20:43:47.897Z,19.55
2023-02-16T20:46:15.678Z,19.52
2023-02-16T20:48:51.275Z,20.38
2023-02-16T20:51:18.796Z,17.35
2023-02-16T20:53:45.855Z,15.65
2023-02-16T20:56:16.792Z,16.92
2023-02-16T20:58:48.254Z,16.38
2023-02-16T21:01:23.919Z,15.37
2023-02-16T21:03:52.660Z,32.22
2023-02-16T21:06:19.560Z,21.40
2023-02-16T21:08:46.496Z,16.88
2023-02-16T21:11:18.322Z,14.07
2023-02-16T21:13:45.454Z,16.10
2023-02-16T21:16:14.251Z,15.10
2023-02-16T21:18:41.109Z,16.73
2023-02-16T21:21:09.047Z,19.75
2023-02-16T21:23:36.420Z,29.88
2023-02-16T21:26:05.712Z,22.35
2023-02-16T21:28:33.143Z,18.13
2023-02-16T21:31:09.997Z,19.80
2023-02-16T21:33:38.380Z,17.00
2023-02-16T21:36:14.077Z,18.55
2023-02-16T21:38:42.317Z,18.30
2023-02-16T21:41:26.310Z,18.20
2023-02-16T21:44:03.276Z,20.85
2023-02-16T21:46:36.070Z,19.77
2023-02-16T21:49:04.106Z,21.23
2023-02-16T21:51:33.772Z,21.02
2023-02-16T21:54:00.469Z,21.92
2023-02-16T21:56:37.615Z,18.20
2023-02-16T21:59:06.800Z,18.00
2023-02-16T22:01:37.355Z,18.30
2023-02-16T22:04:04.946Z,18.30
2023-02-16T22:06:38.404Z,18.75
2023-02-16T22:09:08.042Z,20.38
2023-02-16T22:11:34.964Z,19.35
2023-02-16T22:14:02.368Z,19.95
2023-02-16T22:16:31.191Z,20.33
2023-02-16T22:19:07.253Z,20.20
2023-02-16T22:21:41.896Z,20.13
2023-02-16T22:24:14.066Z,20.05
2023-02-16T22:26:41.888Z,19.60
2023-02-16T22:29:08.846Z,20.13
2023-02-16T22:31:36.577Z,23.02
2023-02-16T22:34:06.413Z,29.10
2023-02-16T22:36:33.911Z,23.92
2023-02-16T22:39:00.616Z,28.55
2023-02-16T22:41:27.502Z,37.28
2023-02-16T22:43:55.646Z,37.08
2023-02-16T22:46:26.469Z,62.40
2023-02-16T22:48:58.634Z,40.40
2023-02-16T22:53:55.115Z,27.10
2023-02-16T22:56:21.855Z,31.40
2023-02-16T22:58:48.853Z,25.42
2023-02-16T23:01:21.101Z,27.15
2023-02-16T23:06:18.767Z,26.45
2023-02-16T23:08:47.149Z,22.80
2023-02-16T23:11:14.058Z,23.90
2023-02-16T23:13:40.730Z,23.13
2023-02-16T23:16:11.647Z,22.20
2023-02-16T23:18:38.719Z,21.77
2023-02-16T23:21:09.223Z,20.98
2023-02-16T23:23:36.961Z,23.27
2023-02-16T23:26:06.453Z,19.73
2023-02-16T23:28:34.356Z,21.40
2023-02-16T23:31:01.476Z,20.85
2023-02-16T23:33:28.194Z,23.17
2023-02-16T23:35:55.091Z,21.02
2023-02-16T23:38:21.981Z,21.25
2023-02-16T23:40:58.567Z,21.77
2023-02-16T23:43:25.476Z,20.30
2023-02-16T23:45:52.720Z,20.23
2023-02-16T23:48:19.467Z,20.05
2023-02-16T23:50:46.637Z,21.52
2023-02-16T23:53:13.516Z,19.80
2023-02-16T23:55:40.188Z,22.20
2023-02-16T23:58:06.841Z,21.13
